Terminal Aerodrome Forecast
Issued by NWS St Louis, MO

Home | Current Version | Previous Version | Text Only | Print | Product List | Glossary On
Versions: 1 2 3 4 5 6 7 8 9 10 11 12 13 14 15 16 17 18 19 20 21 22 23 24 25 26 27
362
FTUS43 KLSX 160255 AAA
TAFSTL
TAF AMD
KSTL 160255Z 1603/1706 21007KT P6SM SKC
     FM160600 21009KT P6SM SKC WS015/25040KT
     FM161500 22012G18KT P6SM SKC
     FM170000 18008KT P6SM SCT250=

USA.gov is the U.S. government's official web portal to all federal, state and local government web resources and services.